sensor_id;sensor_type;location;lat;lon;timestamp;P1;durP1;ratioP1;P2;durP2;ratioP2
53881;SDS011;39794;55.782;37.452;2023-08-07T00:00:58;10.82;;;3.67;;
53881;SDS011;39794;55.782;37.452;2023-08-07T00:03:27;8.90;;;4.10;;
53881;SDS011;39794;55.782;37.452;2023-08-07T00:05:56;8.30;;;4.05;;
53881;SDS011;39794;55.782;37.452;2023-08-07T00:08:24;12.60;;;4.03;;
53881;SDS011;39794;55.782;37.452;2023-08-07T00:10:53;8.45;;;3.65;;
53881;SDS011;39794;55.782;37.452;2023-08-07T00:13:22;7.22;;;4.20;;
53881;SDS011;39794;55.782;37.452;2023-08-07T00:15:51;11.32;;;4.03;;
53881;SDS011;39794;55.782;37.452;2023-08-07T00:18:20;6.93;;;3.92;;
53881;SDS011;39794;55.782;37.452;2023-08-07T00:20:49;8.02;;;4.15;;
53881;SDS011;39794;55.782;37.452;2023-08-07T00:23:18;4.95;;;3.90;;
53881;SDS011;39794;55.782;37.452;2023-08-07T00:25:47;8.63;;;3.95;;
53881;SDS011;39794;55.782;37.452;2023-08-07T00:28:15;7.88;;;3.90;;
53881;SDS011;39794;55.782;37.452;2023-08-07T00:30:44;4.43;;;3.35;;
53881;SDS011;39794;55.782;37.452;2023-08-07T00:33:14;10.85;;;4.20;;
53881;SDS011;39794;55.782;37.452;2023-08-07T00:35:43;5.22;;;3.88;;
53881;SDS011;39794;55.782;37.452;2023-08-07T00:38:12;6.93;;;3.75;;
53881;SDS011;39794;55.782;37.452;2023-08-07T00:40:41;7.50;;;4.18;;
53881;SDS011;39794;55.782;37.452;2023-08-07T00:43:10;6.97;;;3.85;;
53881;SDS011;39794;55.782;37.452;2023-08-07T00:45:40;8.85;;;7.88;;
53881;SDS011;39794;55.782;37.452;2023-08-07T00:48:11;6.47;;;4.28;;
53881;SDS011;39794;55.782;37.452;2023-08-07T00:50:41;6.53;;;3.70;;
53881;SDS011;39794;55.782;37.452;2023-08-07T00:53:14;8.52;;;4.10;;
53881;SDS011;39794;55.782;37.452;2023-08-07T00:55:42;5.60;;;3.35;;
53881;SDS011;39794;55.782;37.452;2023-08-07T00:58:11;6.35;;;4.10;;
53881;SDS011;39794;55.782;37.452;2023-08-07T01:00:40;6.60;;;3.63;;
53881;SDS011;39794;55.782;37.452;2023-08-07T01:03:09;7.43;;;4.57;;
53881;SDS011;39794;55.782;37.452;2023-08-07T01:05:41;6.93;;;4.10;;
53881;SDS011;39794;55.782;37.452;2023-08-07T01:08:10;5.55;;;3.83;;
53881;SDS011;39794;55.782;37.452;2023-08-07T01:10:43;4.80;;;3.97;;
53881;SDS011;39794;55.782;37.452;2023-08-07T01:13:23;8.32;;;3.97;;
53881;SDS011;39794;55.782;37.452;2023-08-07T01:15:55;6.47;;;3.70;;
53881;SDS011;39794;55.782;37.452;2023-08-07T01:18:28;6.93;;;3.95;;
53881;SDS011;39794;55.782;37.452;2023-08-07T01:20:58;6.70;;;4.07;;
53881;SDS011;39794;55.782;37.452;2023-08-07T01:23:28;6.70;;;4.10;;
53881;SDS011;39794;55.782;37.452;2023-08-07T01:25:57;5.88;;;3.67;;
53881;SDS011;39794;55.782;37.452;2023-08-07T01:28:26;4.97;;;3.95;;
53881;SDS011;39794;55.782;37.452;2023-08-07T01:30:57;6.50;;;3.90;;
53881;SDS011;39794;55.782;37.452;2023-08-07T01:33:30;5.13;;;3.83;;
53881;SDS011;39794;55.782;37.452;2023-08-07T01:36:01;6.63;;;4.20;;
53881;SDS011;39794;55.782;37.452;2023-08-07T01:38:31;7.43;;;3.85;;
53881;SDS011;39794;55.782;37.452;2023-08-07T01:41:00;8.32;;;4.13;;
53881;SDS011;39794;55.782;37.452;2023-08-07T01:43:30;8.15;;;4.03;;
53881;SDS011;39794;55.782;37.452;2023-08-07T01:46:01;5.88;;;3.78;;
53881;SDS011;39794;55.782;37.452;2023-08-07T01:48:31;5.00;;;4.43;;
53881;SDS011;39794;55.782;37.452;2023-08-07T01:51:00;10.70;;;4.15;;
53881;SDS011;39794;55.782;37.452;2023-08-07T01:53:29;6.28;;;4.00;;
53881;SDS011;39794;55.782;37.452;2023-08-07T01:55:59;7.80;;;4.25;;
53881;SDS011;39794;55.782;37.452;2023-08-07T01:58:28;5.05;;;3.80;;
53881;SDS011;39794;55.782;37.452;2023-08-07T02:00:56;6.28;;;4.07;;
53881;SDS011;39794;55.782;37.452;2023-08-07T02:03:28;4.63;;;3.70;;
53881;SDS011;39794;55.782;37.452;2023-08-07T02:05:57;5.40;;;3.40;;
53881;SDS011;39794;55.782;37.452;2023-08-07T02:08:25;6.97;;;3.78;;
53881;SDS011;39794;55.782;37.452;2023-08-07T02:10:54;6.80;;;3.85;;
53881;SDS011;39794;55.782;37.452;2023-08-07T02:13:25;6.75;;;3.65;;
53881;SDS011;39794;55.782;37.452;2023-08-07T02:15:53;6.03;;;3.72;;
53881;SDS011;39794;55.782;37.452;2023-08-07T02:18:22;4.93;;;3.20;;
53881;SDS011;39794;55.782;37.452;2023-08-07T02:20:51;4.72;;;3.30;;
53881;SDS011;39794;55.782;37.452;2023-08-07T02:23:23;8.02;;;3.80;;
53881;SDS011;39794;55.782;37.452;2023-08-07T02:25:53;4.60;;;3.17;;
53881;SDS011;39794;55.782;37.452;2023-08-07T02:28:21;4.30;;;3.08;;
53881;SDS011;39794;55.782;37.452;2023-08-07T02:30:51;6.97;;;3.67;;
53881;SDS011;39794;55.782;37.452;2023-08-07T02:33:21;7.25;;;3.40;;
53881;SDS011;39794;55.782;37.452;2023-08-07T02:35:49;10.75;;;3.35;;
53881;SDS011;39794;55.782;37.452;2023-08-07T02:38:20;5.07;;;3.45;;
53881;SDS011;39794;55.782;37.452;2023-08-07T02:40:48;4.65;;;3.20;;
53881;SDS011;39794;55.782;37.452;2023-08-07T02:43:17;8.77;;;3.55;;
53881;SDS011;39794;55.782;37.452;2023-08-07T02:45:46;6.10;;;3.22;;
53881;SDS011;39794;55.782;37.452;2023-08-07T02:48:16;5.43;;;2.88;;
53881;SDS011;39794;55.782;37.452;2023-08-07T02:50:47;4.28;;;3.20;;
53881;SDS011;39794;55.782;37.452;2023-08-07T02:53:18;7.22;;;4.10;;
53881;SDS011;39794;55.782;37.452;2023-08-07T02:55:47;4.55;;;3.50;;
53881;SDS011;39794;55.782;37.452;2023-08-07T02:58:15;5.20;;;3.30;;
53881;SDS011;39794;55.782;37.452;2023-08-07T03:00:45;4.45;;;3.22;;
53881;SDS011;39794;55.782;37.452;2023-08-07T03:03:13;4.65;;;3.08;;
53881;SDS011;39794;55.782;37.452;2023-08-07T03:05:47;7.55;;;3.55;;
53881;SDS011;39794;55.782;37.452;2023-08-07T03:08:17;5.57;;;3.42;;
53881;SDS011;39794;55.782;37.452;2023-08-07T03:10:49;6.65;;;3.72;;
53881;SDS011;39794;55.782;37.452;2023-08-07T03:13:20;5.50;;;3.17;;
53881;SDS011;39794;55.782;37.452;2023-08-07T03:15:49;5.93;;;3.30;;
53881;SDS011;39794;55.782;37.452;2023-08-07T03:18:19;5.60;;;3.40;;
53881;SDS011;39794;55.782;37.452;2023-08-07T03:20:49;6.45;;;3.47;;
53881;SDS011;39794;55.782;37.452;2023-08-07T03:23:18;8.20;;;4.00;;
53881;SDS011;39794;55.782;37.452;2023-08-07T03:25:46;4.82;;;3.35;;
53881;SDS011;39794;55.782;37.452;2023-08-07T03:28:15;7.15;;;3.83;;
53881;SDS011;39794;55.782;37.452;2023-08-07T03:30:44;8.10;;;3.30;;
53881;SDS011;39794;55.782;37.452;2023-08-07T03:33:13;5.15;;;3.90;;
53881;SDS011;39794;55.782;37.452;2023-08-07T03:35:43;6.88;;;3.55;;
53881;SDS011;39794;55.782;37.452;2023-08-07T03:38:12;7.38;;;3.45;;
53881;SDS011;39794;55.782;37.452;2023-08-07T03:40:41;6.65;;;3.63;;
53881;SDS011;39794;55.782;37.452;2023-08-07T03:43:10;9.88;;;3.72;;
53881;SDS011;39794;55.782;37.452;2023-08-07T03:45:39;5.22;;;3.63;;
53881;SDS011;39794;55.782;37.452;2023-08-07T03:48:08;7.78;;;3.42;;
53881;SDS011;39794;55.782;37.452;2023-08-07T03:50:37;7.55;;;3.40;;
53881;SDS011;39794;55.782;37.452;2023-08-07T03:53:08;4.03;;;3.33;;
53881;SDS011;39794;55.782;37.452;2023-08-07T03:55:42;6.40;;;3.50;;
53881;SDS011;39794;55.782;37.452;2023-08-07T03:58:12;7.20;;;3.90;;
53881;SDS011;39794;55.782;37.452;2023-08-07T04:00:41;6.43;;;3.53;;
53881;SDS011;39794;55.782;37.452;2023-08-07T04:03:10;6.45;;;3.08;;
53881;SDS011;39794;55.782;37.452;2023-08-07T04:05:39;10.93;;;3.65;;
53881;SDS011;39794;55.782;37.452;2023-08-07T04:08:09;7.47;;;3.38;;
53881;SDS011;39794;55.782;37.452;2023-08-07T04:10:38;12.68;;;3.78;;
53881;SDS011;39794;55.782;37.452;2023-08-07T04:13:07;7.30;;;3.20;;
53881;SDS011;39794;55.782;37.452;2023-08-07T04:15:35;6.38;;;3.28;;
53881;SDS011;39794;55.782;37.452;2023-08-07T04:18:04;4.50;;;3.15;;
53881;SDS011;39794;55.782;37.452;2023-08-07T04:20:33;6.55;;;4.15;;
53881;SDS011;39794;55.782;37.452;2023-08-07T04:23:01;6.05;;;3.40;;
53881;SDS011;39794;55.782;37.452;2023-08-07T04:25:33;4.40;;;2.80;;
53881;SDS011;39794;55.782;37.452;2023-08-07T04:28:02;5.53;;;3.30;;
53881;SDS011;39794;55.782;37.452;2023-08-07T04:30:32;7.70;;;3.08;;
53881;SDS011;39794;55.782;37.452;2023-08-07T04:33:00;5.85;;;3.17;;
53881;SDS011;39794;55.782;37.452;2023-08-07T04:35:29;5.35;;;3.28;;
53881;SDS011;39794;55.782;37.452;2023-08-07T04:37:58;5.80;;;3.40;;
53881;SDS011;39794;55.782;37.452;2023-08-07T04:40:28;9.27;;;3.40;;
53881;SDS011;39794;55.782;37.452;2023-08-07T04:42:58;6.38;;;3.13;;
53881;SDS011;39794;55.782;37.452;2023-08-07T04:45:26;5.43;;;3.20;;
53881;SDS011;39794;55.782;37.452;2023-08-07T04:47:55;5.57;;;3.08;;
53881;SDS011;39794;55.782;37.452;2023-08-07T04:50:24;5.53;;;3.28;;
53881;SDS011;39794;55.782;37.452;2023-08-07T04:52:53;5.00;;;2.83;;
53881;SDS011;39794;55.782;37.452;2023-08-07T04:55:21;7.68;;;3.03;;
53881;SDS011;39794;55.782;37.452;2023-08-07T04:57:50;10.43;;;3.38;;
53881;SDS011;39794;55.782;37.452;2023-08-07T05:00:22;5.50;;;3.17;;
53881;SDS011;39794;55.782;37.452;2023-08-07T05:02:54;4.95;;;3.20;;
53881;SDS011;39794;55.782;37.452;2023-08-07T05:05:24;3.45;;;2.90;;
53881;SDS011;39794;55.782;37.452;2023-08-07T05:07:54;6.28;;;2.75;;
53881;SDS011;39794;55.782;37.452;2023-08-07T05:10:24;6.82;;;2.97;;
53881;SDS011;39794;55.782;37.452;2023-08-07T05:12:52;3.33;;;2.55;;
53881;SDS011;39794;55.782;37.452;2023-08-07T05:15:24;5.57;;;2.92;;
53881;SDS011;39794;55.782;37.452;2023-08-07T05:17:55;5.82;;;3.22;;
53881;SDS011;39794;55.782;37.452;2023-08-07T05:20:24;7.47;;;2.75;;
53881;SDS011;39794;55.782;37.452;2023-08-07T05:22:53;6.35;;;3.08;;
53881;SDS011;39794;55.782;37.452;2023-08-07T05:25:23;8.32;;;3.20;;
53881;SDS011;39794;55.782;37.452;2023-08-07T05:27:51;8.25;;;2.72;;
53881;SDS011;39794;55.782;37.452;2023-08-07T05:30:20;5.00;;;2.42;;
53881;SDS011;39794;55.782;37.452;2023-08-07T05:32:50;4.25;;;2.83;;
53881;SDS011;39794;55.782;37.452;2023-08-07T05:35:19;8.68;;;2.88;;
53881;SDS011;39794;55.782;37.452;2023-08-07T05:37:47;3.75;;;2.50;;
53881;SDS011;39794;55.782;37.452;2023-08-07T05:40:16;7.35;;;2.50;;
53881;SDS011;39794;55.782;37.452;2023-08-07T05:42:45;15.15;;;2.83;;
53881;SDS011;39794;55.782;37.452;2023-08-07T05:45:13;4.72;;;2.80;;
53881;SDS011;39794;55.782;37.452;2023-08-07T05:47:42;6.50;;;2.70;;
53881;SDS011;39794;55.782;37.452;2023-08-07T05:53:21;12.00;;;3.08;;
53881;SDS011;39794;55.782;37.452;2023-08-07T05:55:50;3.22;;;2.08;;
53881;SDS011;39794;55.782;37.452;2023-08-07T05:58:18;6.50;;;2.80;;
53881;SDS011;39794;55.782;37.452;2023-08-07T06:00:47;9.82;;;2.50;;
53881;SDS011;39794;55.782;37.452;2023-08-07T06:03:16;4.30;;;2.72;;
53881;SDS011;39794;55.782;37.452;2023-08-07T06:05:45;9.10;;;2.50;;
53881;SDS011;39794;55.782;37.452;2023-08-07T06:08:15;12.32;;;2.70;;
53881;SDS011;39794;55.782;37.452;2023-08-07T06:10:44;7.50;;;2.40;;
53881;SDS011;39794;55.782;37.452;2023-08-07T06:13:12;9.75;;;2.53;;
53881;SDS011;39794;55.782;37.452;2023-08-07T06:15:56;9.23;;;2.60;;
53881;SDS011;39794;55.782;37.452;2023-08-07T06:18:25;10.18;;;2.80;;
53881;SDS011;39794;55.782;37.452;2023-08-07T06:20:54;11.48;;;2.72;;
53881;SDS011;39794;55.782;37.452;2023-08-07T06:23:25;11.48;;;2.90;;
53881;SDS011;39794;55.782;37.452;2023-08-07T06:25:53;15.57;;;3.53;;
53881;SDS011;39794;55.782;37.452;2023-08-07T06:28:25;9.02;;;3.05;;
53881;SDS011;39794;55.782;37.452;2023-08-07T06:31:00;15.45;;;3.50;;
53881;SDS011;39794;55.782;37.452;2023-08-07T06:33:29;11.80;;;3.00;;
53881;SDS011;39794;55.782;37.452;2023-08-07T06:35:58;12.38;;;3.20;;
53881;SDS011;39794;55.782;37.452;2023-08-07T06:38:29;13.88;;;3.25;;
53881;SDS011;39794;55.782;37.452;2023-08-07T06:40:58;10.30;;;2.67;;
53881;SDS011;39794;55.782;37.452;2023-08-07T06:43:26;10.32;;;2.40;;
53881;SDS011;39794;55.782;37.452;2023-08-07T06:45:55;7.30;;;2.67;;
53881;SDS011;39794;55.782;37.452;2023-08-07T06:48:24;10.93;;;2.80;;
53881;SDS011;39794;55.782;37.452;2023-08-07T06:50:53;7.75;;;2.45;;
53881;SDS011;39794;55.782;37.452;2023-08-07T06:53:22;4.25;;;2.40;;
53881;SDS011;39794;55.782;37.452;2023-08-07T06:55:52;9.52;;;2.60;;
53881;SDS011;39794;55.782;37.452;2023-08-07T06:58:23;9.73;;;3.50;;
53881;SDS011;39794;55.782;37.452;2023-08-07T07:00:52;9.43;;;2.25;;
53881;SDS011;39794;55.782;37.452;2023-08-07T07:03:21;9.02;;;2.20;;
53881;SDS011;39794;55.782;37.452;2023-08-07T07:05:50;7.03;;;2.20;;
53881;SDS011;39794;55.782;37.452;2023-08-07T07:08:19;4.60;;;2.40;;
53881;SDS011;39794;55.782;37.452;2023-08-07T07:10:47;11.10;;;2.05;;
53881;SDS011;39794;55.782;37.452;2023-08-07T07:13:17;7.20;;;2.22;;
53881;SDS011;39794;55.782;37.452;2023-08-07T07:15:46;11.90;;;3.08;;
53881;SDS011;39794;55.782;37.452;2023-08-07T07:18:21;9.00;;;2.35;;
53881;SDS011;39794;55.782;37.452;2023-08-07T07:20:56;7.93;;;2.10;;
53881;SDS011;39794;55.782;37.452;2023-08-07T07:23:26;6.70;;;2.35;;
53881;SDS011;39794;55.782;37.452;2023-08-07T07:25:55;9.73;;;2.33;;
53881;SDS011;39794;55.782;37.452;2023-08-07T07:28:26;23.48;;;2.30;;
53881;SDS011;39794;55.782;37.452;2023-08-07T07:30:55;4.75;;;1.70;;
53881;SDS011;39794;55.782;37.452;2023-08-07T07:33:27;6.65;;;2.58;;
53881;SDS011;39794;55.782;37.452;2023-08-07T07:35:57;6.85;;;2.20;;
53881;SDS011;39794;55.782;37.452;2023-08-07T07:38:26;4.70;;;2.03;;
53881;SDS011;39794;55.782;37.452;2023-08-07T07:40:55;6.13;;;1.77;;
53881;SDS011;39794;55.782;37.452;2023-08-07T07:43:26;7.53;;;1.98;;
53881;SDS011;39794;55.782;37.452;2023-08-07T07:45:54;19.98;;;2.33;;
53881;SDS011;39794;55.782;37.452;2023-08-07T07:48:23;10.95;;;2.38;;
53881;SDS011;39794;55.782;37.452;2023-08-07T07:50:52;7.85;;;1.85;;
53881;SDS011;39794;55.782;37.452;2023-08-07T07:53:26;7.85;;;1.67;;
53881;SDS011;39794;55.782;37.452;2023-08-07T07:55:55;5.55;;;1.70;;
53881;SDS011;39794;55.782;37.452;2023-08-07T07:58:25;5.25;;;1.90;;
53881;SDS011;39794;55.782;37.452;2023-08-07T08:00:55;6.68;;;1.90;;
53881;SDS011;39794;55.782;37.452;2023-08-07T08:03:24;5.78;;;1.65;;
53881;SDS011;39794;55.782;37.452;2023-08-07T08:05:52;12.05;;;2.20;;
53881;SDS011;39794;55.782;37.452;2023-08-07T08:08:21;8.65;;;1.98;;
53881;SDS011;39794;55.782;37.452;2023-08-07T08:10:54;8.47;;;2.00;;
53881;SDS011;39794;55.782;37.452;2023-08-07T08:13:23;18.05;;;2.90;;
53881;SDS011;39794;55.782;37.452;2023-08-07T08:15:54;7.95;;;2.08;;
53881;SDS011;39794;55.782;37.452;2023-08-07T08:18:23;7.97;;;2.25;;
53881;SDS011;39794;55.782;37.452;2023-08-07T08:20:53;11.40;;;1.73;;
53881;SDS011;39794;55.782;37.452;2023-08-07T08:23:22;9.75;;;1.90;;
53881;SDS011;39794;55.782;37.452;2023-08-07T08:25:51;5.90;;;1.90;;
53881;SDS011;39794;55.782;37.452;2023-08-07T08:28:19;9.05;;;2.00;;
53881;SDS011;39794;55.782;37.452;2023-08-07T08:30:51;8.45;;;1.80;;
53881;SDS011;39794;55.782;37.452;2023-08-07T08:33:21;9.38;;;2.00;;
53881;SDS011;39794;55.782;37.452;2023-08-07T08:35:50;6.80;;;1.80;;
53881;SDS011;39794;55.782;37.452;2023-08-07T08:38:19;4.90;;;1.80;;
53881;SDS011;39794;55.782;37.452;2023-08-07T08:40:51;6.90;;;1.98;;
53881;SDS011;39794;55.782;37.452;2023-08-07T08:43:21;7.03;;;2.22;;
53881;SDS011;39794;55.782;37.452;2023-08-07T08:45:51;8.60;;;2.42;;
53881;SDS011;39794;55.782;37.452;2023-08-07T08:48:21;4.30;;;1.75;;
53881;SDS011;39794;55.782;37.452;2023-08-07T08:50:51;6.38;;;1.70;;
53881;SDS011;39794;55.782;37.452;2023-08-07T08:53:20;12.23;;;2.00;;
53881;SDS011;39794;55.782;37.452;2023-08-07T08:55:49;10.90;;;2.28;;
53881;SDS011;39794;55.782;37.452;2023-08-07T08:58:19;16.55;;;2.63;;
53881;SDS011;39794;55.782;37.452;2023-08-07T09:00:48;12.90;;;2.22;;
53881;SDS011;39794;55.782;37.452;2023-08-07T09:03:18;13.70;;;2.08;;
53881;SDS011;39794;55.782;37.452;2023-08-07T09:05:49;9.65;;;2.33;;
53881;SDS011;39794;55.782;37.452;2023-08-07T09:08:18;9.20;;;2.80;;
53881;SDS011;39794;55.782;37.452;2023-08-07T09:10:48;5.40;;;1.88;;
53881;SDS011;39794;55.782;37.452;2023-08-07T09:13:17;10.23;;;2.38;;
53881;SDS011;39794;55.782;37.452;2023-08-07T09:15:50;15.40;;;2.42;;
53881;SDS011;39794;55.782;37.452;2023-08-07T09:18:19;5.05;;;1.98;;
53881;SDS011;39794;55.782;37.452;2023-08-07T09:20:49;8.73;;;2.20;;
53881;SDS011;39794;55.782;37.452;2023-08-07T09:23:18;8.50;;;2.05;;
53881;SDS011;39794;55.782;37.452;2023-08-07T09:25:47;10.00;;;2.00;;
53881;SDS011;39794;55.782;37.452;2023-08-07T09:28:28;9.65;;;2.28;;
53881;SDS011;39794;55.782;37.452;2023-08-07T09:30:57;9.82;;;2.30;;
53881;SDS011;39794;55.782;37.452;2023-08-07T09:33:27;11.23;;;1.95;;
53881;SDS011;39794;55.782;37.452;2023-08-07T09:35:58;15.35;;;2.53;;
53881;SDS011;39794;55.782;37.452;2023-08-07T09:38:28;14.23;;;2.25;;
53881;SDS011;39794;55.782;37.452;2023-08-07T09:41:01;10.18;;;1.83;;
53881;SDS011;39794;55.782;37.452;2023-08-07T09:43:33;4.38;;;2.28;;
53881;SDS011;39794;55.782;37.452;2023-08-07T09:46:02;7.10;;;2.45;;
53881;SDS011;39794;55.782;37.452;2023-08-07T09:48:32;10.23;;;2.25;;
53881;SDS011;39794;55.782;37.452;2023-08-07T09:51:09;5.15;;;2.25;;
53881;SDS011;39794;55.782;37.452;2023-08-07T09:53:38;4.32;;;1.70;;
53881;SDS011;39794;55.782;37.452;2023-08-07T09:56:07;4.60;;;2.10;;
53881;SDS011;39794;55.782;37.452;2023-08-07T09:58:39;7.80;;;2.00;;
53881;SDS011;39794;55.782;37.452;2023-08-07T10:01:15;6.95;;;1.80;;
53881;SDS011;39794;55.782;37.452;2023-08-07T10:03:45;7.45;;;1.88;;
53881;SDS011;39794;55.782;37.452;2023-08-07T10:06:16;6.63;;;1.80;;
53881;SDS011;39794;55.782;37.452;2023-08-07T10:08:46;4.07;;;1.83;;
53881;SDS011;39794;55.782;37.452;2023-08-07T10:11:15;11.32;;;2.00;;
53881;SDS011;39794;55.782;37.452;2023-08-07T10:13:44;4.97;;;1.77;;
53881;SDS011;39794;55.782;37.452;2023-08-07T10:16:13;6.60;;;1.95;;
53881;SDS011;39794;55.782;37.452;2023-08-07T10:18:42;5.68;;;2.45;;
53881;SDS011;39794;55.782;37.452;2023-08-07T10:21:13;4.68;;;1.90;;
53881;SDS011;39794;55.782;37.452;2023-08-07T10:23:43;6.93;;;1.90;;
53881;SDS011;39794;55.782;37.452;2023-08-07T10:26:12;8.13;;;1.80;;
53881;SDS011;39794;55.782;37.452;2023-08-07T10:28:41;4.88;;;1.80;;
53881;SDS011;39794;55.782;37.452;2023-08-07T10:31:11;16.25;;;8.63;;
53881;SDS011;39794;55.782;37.452;2023-08-07T10:36:15;4.57;;;2.03;;
53881;SDS011;39794;55.782;37.452;2023-08-07T10:38:47;4.82;;;1.67;;
53881;SDS011;39794;55.782;37.452;2023-08-07T10:41:17;6.65;;;1.70;;
53881;SDS011;39794;55.782;37.452;2023-08-07T10:43:47;4.57;;;1.98;;
53881;SDS011;39794;55.782;37.452;2023-08-07T10:46:19;15.02;;;2.63;;
53881;SDS011;39794;55.782;37.452;2023-08-07T10:48:58;7.15;;;1.83;;
53881;SDS011;39794;55.782;37.452;2023-08-07T10:51:28;6.32;;;2.10;;
53881;SDS011;39794;55.782;37.452;2023-08-07T10:54:00;4.05;;;1.80;;
53881;SDS011;39794;55.782;37.452;2023-08-07T10:56:31;4.55;;;1.73;;
53881;SDS011;39794;55.782;37.452;2023-08-07T10:59:07;6.30;;;1.77;;
53881;SDS011;39794;55.782;37.452;2023-08-07T11:04:10;4.78;;;1.75;;
53881;SDS011;39794;55.782;37.452;2023-08-07T11:06:42;6.18;;;1.70;;
53881;SDS011;39794;55.782;37.452;2023-08-07T11:09:14;3.05;;;1.90;;
53881;SDS011;39794;55.782;37.452;2023-08-07T11:11:43;14.32;;;2.00;;
53881;SDS011;39794;55.782;37.452;2023-08-07T11:14:15;3.65;;;1.38;;
53881;SDS011;39794;55.782;37.452;2023-08-07T11:16:46;7.55;;;1.98;;
53881;SDS011;39794;55.782;37.452;2023-08-07T11:19:16;3.05;;;1.90;;
53881;SDS011;39794;55.782;37.452;2023-08-07T11:21:46;7.07;;;1.90;;
53881;SDS011;39794;55.782;37.452;2023-08-07T11:24:19;4.68;;;1.80;;
53881;SDS011;39794;55.782;37.452;2023-08-07T11:26:48;7.15;;;1.83;;
53881;SDS011;39794;55.782;37.452;2023-08-07T11:29:20;5.25;;;1.70;;
53881;SDS011;39794;55.782;37.452;2023-08-07T11:31:51;6.82;;;2.63;;
53881;SDS011;39794;55.782;37.452;2023-08-07T11:34:20;6.97;;;3.00;;
53881;SDS011;39794;55.782;37.452;2023-08-07T11:36:52;9.68;;;1.77;;
53881;SDS011;39794;55.782;37.452;2023-08-07T11:39:24;8.48;;;2.50;;
53881;SDS011;39794;55.782;37.452;2023-08-07T11:41:55;7.72;;;2.08;;
53881;SDS011;39794;55.782;37.452;2023-08-07T11:44:25;8.40;;;1.88;;
53881;SDS011;39794;55.782;37.452;2023-08-07T11:46:56;8.32;;;2.85;;
53881;SDS011;39794;55.782;37.452;2023-08-07T11:49:25;9.75;;;2.70;;
53881;SDS011;39794;55.782;37.452;2023-08-07T11:51:56;4.72;;;2.20;;
53881;SDS011;39794;55.782;37.452;2023-08-07T11:54:28;3.42;;;1.70;;
53881;SDS011;39794;55.782;37.452;2023-08-07T11:56:58;6.55;;;2.05;;
53881;SDS011;39794;55.782;37.452;2023-08-07T11:59:27;5.53;;;2.25;;
53881;SDS011;39794;55.782;37.452;2023-08-07T12:01:59;7.25;;;2.10;;
53881;SDS011;39794;55.782;37.452;2023-08-07T12:04:41;4.95;;;2.50;;
53881;SDS011;39794;55.782;37.452;2023-08-07T12:07:15;12.10;;;2.85;;
53881;SDS011;39794;55.782;37.452;2023-08-07T12:09:51;8.98;;;2.30;;
53881;SDS011;39794;55.782;37.452;2023-08-07T12:12:21;6.85;;;2.15;;
53881;SDS011;39794;55.782;37.452;2023-08-07T12:14:52;7.43;;;2.22;;
53881;SDS011;39794;55.782;37.452;2023-08-07T12:17:22;7.22;;;2.08;;
53881;SDS011;39794;55.782;37.452;2023-08-07T12:19:52;6.68;;;2.22;;
53881;SDS011;39794;55.782;37.452;2023-08-07T12:22:21;5.78;;;2.03;;
53881;SDS011;39794;55.782;37.452;2023-08-07T12:24:52;6.75;;;2.03;;
53881;SDS011;39794;55.782;37.452;2023-08-07T12:27:24;4.05;;;2.40;;
53881;SDS011;39794;55.782;37.452;2023-08-07T12:29:55;13.68;;;2.50;;
53881;SDS011;39794;55.782;37.452;2023-08-07T12:32:25;6.78;;;2.15;;
53881;SDS011;39794;55.782;37.452;2023-08-07T12:34:54;5.78;;;2.58;;
53881;SDS011;39794;55.782;37.452;2023-08-07T12:37:26;4.47;;;1.70;;
53881;SDS011;39794;55.782;37.452;2023-08-07T12:40:00;5.23;;;2.40;;
53881;SDS011;39794;55.782;37.452;2023-08-07T12:42:33;5.90;;;2.10;;
53881;SDS011;39794;55.782;37.452;2023-08-07T12:45:02;8.25;;;2.40;;
53881;SDS011;39794;55.782;37.452;2023-08-07T12:47:32;5.03;;;2.10;;
53881;SDS011;39794;55.782;37.452;2023-08-07T12:50:01;7.80;;;2.47;;
53881;SDS011;39794;55.782;37.452;2023-08-07T12:52:31;8.30;;;2.42;;
53881;SDS011;39794;55.782;37.452;2023-08-07T12:55:05;9.50;;;2.30;;
53881;SDS011;39794;55.782;37.452;2023-08-07T12:57:39;6.18;;;2.22;;
53881;SDS011;39794;55.782;37.452;2023-08-07T13:00:11;5.35;;;2.58;;
53881;SDS011;39794;55.782;37.452;2023-08-07T13:02:41;5.40;;;2.47;;
53881;SDS011;39794;55.782;37.452;2023-08-07T13:05:11;9.43;;;2.60;;
53881;SDS011;39794;55.782;37.452;2023-08-07T13:07:43;4.38;;;2.50;;
53881;SDS011;39794;55.782;37.452;2023-08-07T13:10:15;6.45;;;2.13;;
53881;SDS011;39794;55.782;37.452;2023-08-07T13:12:47;9.30;;;2.45;;
53881;SDS011;39794;55.782;37.452;2023-08-07T13:15:18;5.38;;;2.40;;
53881;SDS011;39794;55.782;37.452;2023-08-07T13:17:48;11.48;;;2.60;;
53881;SDS011;39794;55.782;37.452;2023-08-07T13:20:17;5.10;;;2.10;;
53881;SDS011;39794;55.782;37.452;2023-08-07T13:22:47;4.40;;;2.50;;
53881;SDS011;39794;55.782;37.452;2023-08-07T13:25:18;3.58;;;2.28;;
53881;SDS011;39794;55.782;37.452;2023-08-07T13:27:48;4.13;;;2.28;;
53881;SDS011;39794;55.782;37.452;2023-08-07T13:30:17;7.25;;;2.13;;
53881;SDS011;39794;55.782;37.452;2023-08-07T13:32:48;11.45;;;2.72;;
53881;SDS011;39794;55.782;37.452;2023-08-07T13:35:17;7.18;;;2.22;;
53881;SDS011;39794;55.782;37.452;2023-08-07T13:37:47;7.75;;;2.30;;
53881;SDS011;39794;55.782;37.452;2023-08-07T13:40:18;11.75;;;3.65;;
53881;SDS011;39794;55.782;37.452;2023-08-07T13:42:48;8.38;;;2.92;;
53881;SDS011;39794;55.782;37.452;2023-08-07T13:45:20;4.33;;;2.60;;
53881;SDS011;39794;55.782;37.452;2023-08-07T13:47:52;7.68;;;2.42;;
53881;SDS011;39794;55.782;37.452;2023-08-07T13:50:21;7.35;;;2.47;;
53881;SDS011;39794;55.782;37.452;2023-08-07T13:52:51;10.23;;;2.70;;
53881;SDS011;39794;55.782;37.452;2023-08-07T13:55:41;10.15;;;2.22;;
53881;SDS011;39794;55.782;37.452;2023-08-07T13:58:11;14.70;;;2.78;;
53881;SDS011;39794;55.782;37.452;2023-08-07T14:00:42;4.20;;;2.30;;
53881;SDS011;39794;55.782;37.452;2023-08-07T14:03:13;3.67;;;2.20;;
53881;SDS011;39794;55.782;37.452;2023-08-07T14:05:43;8.85;;;2.80;;
53881;SDS011;39794;55.782;37.452;2023-08-07T14:08:12;6.78;;;2.20;;
53881;SDS011;39794;55.782;37.452;2023-08-07T14:10:42;7.68;;;2.47;;
53881;SDS011;39794;55.782;37.452;2023-08-07T14:13:16;6.70;;;2.25;;
53881;SDS011;39794;55.782;37.452;2023-08-07T14:15:47;6.65;;;2.83;;
53881;SDS011;39794;55.782;37.452;2023-08-07T14:18:17;5.40;;;2.20;;
53881;SDS011;39794;55.782;37.452;2023-08-07T14:20:46;5.32;;;2.10;;
53881;SDS011;39794;55.782;37.452;2023-08-07T14:23:29;9.97;;;2.30;;
53881;SDS011;39794;55.782;37.452;2023-08-07T14:26:22;11.57;;;2.40;;
53881;SDS011;39794;55.782;37.452;2023-08-07T14:28:54;7.35;;;2.72;;
53881;SDS011;39794;55.782;37.452;2023-08-07T14:31:24;4.88;;;2.22;;
53881;SDS011;39794;55.782;37.452;2023-08-07T14:33:53;4.82;;;2.03;;
53881;SDS011;39794;55.782;37.452;2023-08-07T14:36:24;3.88;;;2.13;;
53881;SDS011;39794;55.782;37.452;2023-08-07T14:38:53;14.88;;;2.60;;
53881;SDS011;39794;55.782;37.452;2023-08-07T14:41:25;7.68;;;2.92;;
53881;SDS011;39794;55.782;37.452;2023-08-07T14:43:54;8.35;;;2.60;;
53881;SDS011;39794;55.782;37.452;2023-08-07T14:46:23;3.92;;;2.28;;
53881;SDS011;39794;55.782;37.452;2023-08-07T14:48:55;8.70;;;2.60;;
53881;SDS011;39794;55.782;37.452;2023-08-07T14:51:24;11.77;;;2.42;;
53881;SDS011;39794;55.782;37.452;2023-08-07T14:53:55;5.55;;;2.10;;
53881;SDS011;39794;55.782;37.452;2023-08-07T14:56:31;5.05;;;2.30;;
53881;SDS011;39794;55.782;37.452;2023-08-07T14:59:03;7.22;;;2.50;;